Lafayette, MN (56054)

4:15 AM CST on December 06, 2016 (GMT -0600)
New Ulm Municipal | | Change Station

Elev 1010 ft 44.32 °N, 94.50 °W | Updated 22 minutes ago

Overcast
Overcast
25 °F
Feels Like 11 °F
N
20
Wind Variable Wind from West

Today
High -- | Low -- °F
--% Chance of Precip.
Yesterday
High -- | Low -- °F
Precip. -- in
Pressure 29.77 in
Visibility 10.0 miles
Clouds Overcast 2000 ft
Windchill 11 °F
Dew Point 18 °F
Humidity 74%
Rainfall 0.00 in
Snow Depth Not available.
7:39 AM 4:38 PM
Waxing Crescent, 40% visible
METAR KULM 060953Z AUTO 27017KT 10SM OVC020 M04/M08 A2977 RMK AO2
Pressure 29.77 in
Visibility 10.0 miles
Clouds Overcast 2000 ft
Windchill 11 °F
Dew Point 18 °F
Humidity 74%
Rainfall 0.00 in
Snow Depth Not available.
7:39 AM 4:38 PM
Waxing Crescent, 40% visible
METAR KULM 060953Z AUTO 27017KT 10SM OVC020 M04/M08 A2977 RMK AO2

10-Day Weather Forecast

Almanac

Astronomy

Dec. 06, 2016 Rise Set
Actual Time
Civil Twilight
Nautical Twilight
Astronomical Twilight
Moon
Length of Visible Light
Length of Day
Tomorrow will be .
, % of the Moon is Illuminated

Today's Extremes

State Highs State Lows

Community

WunderPhotos

Upload Photos

1,955,935 photos uploaded!

WunderBlog® & News

Nearby

Air Quality

  Air Quality AQ Index Pollutant
Not available.

Snow Depth

Station Depth Elevation

Earthquake Activity

City Distance Mag. Time & Date
Minimum magnitude displayed is 2.5.

Coastal Water Temperatures

Place Temperature

Stations

Nearby Weather Stations

Station Location Temp. Windchill Dew Point Humidity Wind Precip. Elev Updated Type
                   

Watches & Warnings

There are currently no watches in effect.